createdAt,value
2024-04-25T00:00:01.708Z,0.89
2024-04-25T00:01:01.717Z,0.89
2024-04-25T00:02:01.686Z,0.89
2024-04-25T00:03:01.750Z,0.89
2024-04-25T00:04:01.674Z,0.89
2024-04-25T00:05:01.651Z,0.88
2024-04-25T00:06:01.655Z,0.88
2024-04-25T00:07:01.674Z,0.89
2024-04-25T00:08:01.646Z,0.87
2024-04-25T00:09:01.658Z,0.91
2024-04-25T00:10:01.694Z,0.87
2024-04-25T00:11:01.690Z,0.90
2024-04-25T00:12:01.735Z,0.88
2024-04-25T00:13:01.643Z,0.88
2024-04-25T00:14:01.630Z,0.87
2024-04-25T00:15:01.619Z,0.88
2024-04-25T00:16:01.625Z,0.87
2024-04-25T00:17:01.650Z,0.89
2024-04-25T00:18:01.616Z,0.90
2024-04-25T00:19:01.585Z,0.89
2024-04-25T00:20:01.646Z,0.86
2024-04-25T00:21:01.569Z,0.86
2024-04-25T00:22:01.549Z,0.86
2024-04-25T00:23:01.567Z,0.88
2024-04-25T00:24:01.534Z,0.87
2024-04-25T00:25:01.539Z,0.84
2024-04-25T00:26:01.522Z,0.87
2024-04-25T00:27:01.515Z,0.86
2024-04-25T00:28:01.492Z,0.86
2024-04-25T00:29:03.182Z,0.86
2024-04-25T00:30:01.491Z,0.85
2024-04-25T00:31:01.470Z,0.86
2024-04-25T00:32:01.495Z,0.85
2024-04-25T00:33:01.586Z,0.85
2024-04-25T00:34:01.646Z,0.84
2024-04-25T00:35:01.580Z,0.85
2024-04-25T00:36:01.639Z,0.83
2024-04-25T00:37:01.648Z,0.85
2024-04-25T00:38:01.685Z,0.84
2024-04-25T00:39:01.712Z,0.83
2024-04-25T00:40:01.867Z,0.84
2024-04-25T00:41:01.794Z,0.84
2024-04-25T00:42:01.849Z,0.85
2024-04-25T00:43:02.050Z,0.84
2024-04-25T00:44:01.907Z,0.83
2024-04-25T00:45:01.936Z,0.83
2024-04-25T00:46:01.993Z,0.83
2024-04-25T00:47:02.040Z,0.84
2024-04-25T00:48:02.206Z,0.86
2024-04-25T00:49:02.095Z,0.84
2024-04-25T00:50:02.139Z,0.84
2024-04-25T00:51:02.168Z,0.83
2024-04-25T00:52:02.193Z,0.83
2024-04-25T00:53:02.233Z,0.83
2024-04-25T00:54:02.284Z,0.85
2024-04-25T00:55:02.306Z,0.82
2024-04-25T00:56:02.343Z,0.85
2024-04-25T00:57:02.342Z,0.82
2024-04-25T00:58:02.384Z,0.83
2024-04-25T00:59:02.426Z,0.81
2024-04-25T01:00:02.440Z,0.84
2024-04-25T01:01:02.584Z,0.82
2024-04-25T01:02:02.517Z,0.83
2024-04-25T01:03:02.646Z,0.83
2024-04-25T01:04:02.629Z,0.82
2024-04-25T01:05:02.652Z,0.81
2024-04-25T01:06:02.657Z,0.81
2024-04-25T01:07:02.674Z,0.83
2024-04-25T01:08:02.709Z,0.81
2024-04-25T01:09:02.742Z,0.80
2024-04-25T01:10:02.809Z,0.82
2024-04-25T01:11:02.863Z,0.83
2024-04-25T01:12:02.950Z,0.81
2024-04-25T01:13:02.888Z,0.82
2024-04-25T01:14:03.009Z,0.81
2024-04-25T01:15:02.953Z,0.82
2024-04-25T01:16:03.044Z,0.82
2024-04-25T01:17:03.093Z,0.80
2024-04-25T01:18:03.135Z,0.80
2024-04-25T01:19:03.100Z,0.80
2024-04-25T01:20:03.217Z,0.81
2024-04-25T01:21:03.172Z,0.81
2024-04-25T01:22:03.199Z,0.80
2024-04-25T01:23:03.448Z,0.82
2024-04-25T01:24:03.314Z,0.80
2024-04-25T01:25:03.307Z,0.81
2024-04-25T01:26:03.374Z,0.81
2024-04-25T01:27:03.394Z,0.79
2024-04-25T01:28:03.384Z,0.79
2024-04-25T01:29:03.445Z,0.79
2024-04-25T01:30:03.422Z,0.80
2024-04-25T01:31:03.358Z,0.79
2024-04-25T01:32:03.425Z,0.79
2024-04-25T01:33:03.397Z,0.80
2024-04-25T01:34:03.527Z,0.80
2024-04-25T01:35:03.349Z,0.80
2024-04-25T01:36:03.304Z,0.81
2024-04-25T01:37:03.294Z,0.79
2024-04-25T01:38:03.394Z,0.79
2024-04-25T01:39:03.301Z,0.80
2024-04-25T01:40:03.292Z,0.78
2024-04-25T01:41:03.343Z,0.79
2024-04-25T01:42:03.306Z,0.79
2024-04-25T01:43:03.343Z,0.80
2024-04-25T01:44:03.475Z,0.79
2024-04-25T01:45:03.410Z,0.81
2024-04-25T01:46:03.453Z,0.79
2024-04-25T01:47:03.491Z,0.80
2024-04-25T01:48:03.665Z,0.79
2024-04-25T01:49:03.635Z,0.79
2024-04-25T01:50:03.737Z,0.78
2024-04-25T01:51:03.653Z,0.78
2024-04-25T01:52:03.805Z,0.78
2024-04-25T01:53:03.836Z,0.78
2024-04-25T01:55:03.821Z,0.77
2024-04-25T01:56:03.867Z,0.77
2024-04-25T01:57:03.878Z,0.76
2024-04-25T01:58:03.934Z,0.78
2024-04-25T01:59:04.230Z,0.79
2024-04-25T02:00:04.008Z,0.78
2024-04-25T02:01:04.079Z,0.77
2024-04-25T02:02:04.174Z,0.78
2024-04-25T02:03:04.280Z,0.78
2024-04-25T02:04:04.212Z,0.78
2024-04-25T02:05:04.259Z,0.76
2024-04-25T02:06:04.243Z,0.77
2024-04-25T02:07:04.276Z,0.77
2024-04-25T02:08:04.400Z,0.75
2024-04-25T02:09:04.342Z,0.75
2024-04-25T02:10:04.377Z,0.74
2024-04-25T02:11:04.496Z,0.76
2024-04-25T02:12:04.521Z,0.76
2024-04-25T02:13:04.516Z,0.75
2024-04-25T02:14:04.581Z,0.75
2024-04-25T02:15:04.552Z,0.75
2024-04-25T02:16:04.578Z,0.76
2024-04-25T02:17:04.617Z,0.75
2024-04-25T02:18:04.758Z,0.76
2024-04-25T02:19:04.662Z,0.77
2024-04-25T02:20:04.629Z,0.75
2024-04-25T02:21:04.577Z,0.77
2024-04-25T02:22:04.605Z,0.75
2024-04-25T02:23:04.728Z,0.75
2024-04-25T02:24:04.608Z,0.76
2024-04-25T02:25:04.610Z,0.74
2024-04-25T02:26:04.636Z,0.74
2024-04-25T02:27:04.586Z,0.75
2024-04-25T02:28:04.577Z,0.75
2024-04-25T02:29:04.629Z,0.75
2024-04-25T02:30:04.568Z,0.75
2024-04-25T02:31:04.554Z,0.75
2024-04-25T02:32:04.618Z,0.75
2024-04-25T02:33:04.623Z,0.76
2024-04-25T02:34:04.526Z,0.73
2024-04-25T02:35:04.530Z,0.75
2024-04-25T02:36:04.520Z,0.76
2024-04-25T02:37:04.494Z,0.77
2024-04-25T02:38:04.534Z,0.74
2024-04-25T02:39:04.476Z,0.74
2024-04-25T02:40:04.455Z,0.73
2024-04-25T02:41:04.525Z,0.75
2024-04-25T02:42:04.523Z,0.74
2024-04-25T02:43:04.575Z,0.73
2024-04-25T02:44:04.632Z,0.73
2024-04-25T02:45:04.665Z,0.75
2024-04-25T02:46:04.716Z,0.73
2024-04-25T02:47:04.788Z,0.74
2024-04-25T02:48:04.874Z,0.72
2024-04-25T02:49:04.821Z,0.74
2024-04-25T02:50:04.899Z,0.73
2024-04-25T02:51:04.914Z,0.74
2024-04-25T02:52:04.963Z,0.75
2024-04-25T02:53:05.031Z,0.73
2024-04-25T02:54:05.025Z,0.73
2024-04-25T02:55:05.074Z,0.73
2024-04-25T02:56:05.232Z,0.73
2024-04-25T02:57:05.159Z,0.73
2024-04-25T02:58:05.208Z,0.73
2024-04-25T02:59:05.275Z,0.74
2024-04-25T03:00:05.291Z,0.73
2024-04-25T03:01:05.407Z,0.75
2024-04-25T03:02:05.508Z,0.72
2024-04-25T03:03:05.543Z,0.73
2024-04-25T03:04:05.486Z,0.74
2024-04-25T03:05:05.522Z,0.74
2024-04-25T03:06:05.533Z,0.73
2024-04-25T03:07:05.568Z,0.74
2024-04-25T03:08:05.652Z,0.72
2024-04-25T03:09:05.642Z,0.72
2024-04-25T03:10:05.685Z,0.71
2024-04-25T03:11:05.776Z,0.73
2024-04-25T03:12:05.814Z,0.73
2024-04-25T03:13:05.800Z,0.71
2024-04-25T03:14:05.876Z,0.73
2024-04-25T03:15:05.886Z,0.73
2024-04-25T03:16:05.951Z,0.74
2024-04-25T03:17:06.019Z,0.73
2024-04-25T03:18:06.125Z,0.71
2024-04-25T03:19:06.069Z,0.73
2024-04-25T03:20:06.070Z,0.71
2024-04-25T03:21:06.113Z,0.70
2024-04-25T03:22:06.134Z,0.70
2024-04-25T03:23:06.310Z,0.72
2024-04-25T03:24:06.236Z,0.72
2024-04-25T03:25:09.028Z,0.73
2024-04-25T03:26:06.295Z,0.71
2024-04-25T03:27:06.232Z,0.70
2024-04-25T03:28:06.206Z,0.70
2024-04-25T03:29:06.236Z,0.72
2024-04-25T03:30:06.185Z,0.72
2024-04-25T03:31:06.183Z,0.70
2024-04-25T03:32:06.258Z,0.73
2024-04-25T03:33:06.208Z,0.72
2024-04-25T03:34:06.148Z,0.70
2024-04-25T03:35:06.163Z,0.70
2024-04-25T03:36:06.139Z,0.71
2024-04-25T03:37:06.121Z,0.69
2024-04-25T03:38:06.173Z,0.70
2024-04-25T03:39:06.100Z,0.71
2024-04-25T03:40:06.080Z,0.70
2024-04-25T03:41:06.127Z,0.69
2024-04-25T03:42:06.063Z,0.70
2024-04-25T03:43:06.060Z,0.68
2024-04-25T03:44:06.066Z,0.68
2024-04-25T03:45:06.041Z,0.68
2024-04-25T03:46:06.041Z,0.69
2024-04-25T03:47:06.034Z,0.70
2024-04-25T03:48:06.137Z,0.70
2024-04-25T03:49:06.133Z,0.69
2024-04-25T03:50:06.023Z,0.69
2024-04-25T03:51:06.020Z,0.71
2024-04-25T03:52:06.012Z,0.70
2024-04-25T03:53:06.056Z,0.69
2024-04-25T03:54:06.029Z,0.68
2024-04-25T03:55:06.027Z,0.69
2024-04-25T03:56:06.060Z,0.68
2024-04-25T03:57:06.039Z,0.68
2024-04-25T03:58:06.035Z,0.69
2024-04-25T03:59:06.107Z,0.69
2024-04-25T04:00:06.099Z,0.68
2024-04-25T04:01:06.229Z,0.69
2024-04-25T04:02:06.310Z,0.68
2024-04-25T04:03:06.290Z,0.69
2024-04-25T04:04:06.341Z,0.68
2024-04-25T04:05:06.316Z,0.68
2024-04-25T04:06:06.342Z,0.68
2024-04-25T04:07:06.377Z,0.69
2024-04-25T04:08:06.496Z,0.68
2024-04-25T04:09:06.461Z,0.69
2024-04-25T04:10:06.491Z,0.68
2024-04-25T04:11:06.634Z,0.68
2024-04-25T04:12:06.598Z,0.66
2024-04-25T04:13:06.627Z,0.69
2024-04-25T04:14:06.676Z,0.69
2024-04-25T04:15:06.819Z,0.67
2024-04-25T04:16:06.826Z,0.68
2024-04-25T04:17:06.777Z,0.69
2024-04-25T04:18:06.875Z,0.69
2024-04-25T04:19:06.826Z,0.67
2024-04-25T04:20:07.033Z,0.68
2024-04-25T04:21:07.752Z,0.66
2024-04-25T04:22:06.815Z,0.68
2024-04-25T04:23:06.880Z,0.69
2024-04-25T04:24:14.066Z,0.50
2024-04-25T04:25:14.066Z,0.50
2024-04-25T04:26:14.116Z,0.50
2024-04-25T04:27:14.054Z,0.50
2024-04-25T04:28:15.642Z,0.50
2024-04-25T04:29:14.068Z,0.52
2024-04-25T04:30:14.054Z,0.51
2024-04-25T04:31:21.262Z,0.50
2024-04-25T04:32:21.373Z,0.50
2024-04-25T04:33:21.386Z,0.50
2024-04-25T04:34:21.298Z,0.50
2024-04-25T04:35:21.350Z,0.50
2024-04-25T04:36:21.329Z,0.51
2024-04-25T04:37:21.330Z,0.51
2024-04-25T04:38:21.363Z,0.51
2024-04-25T04:39:21.369Z,0.51
2024-04-25T04:40:21.364Z,0.50
2024-04-25T04:41:21.406Z,0.51
2024-04-25T04:42:21.387Z,0.52
2024-04-25T04:43:21.386Z,0.50
2024-04-25T04:44:21.389Z,0.53
2024-04-25T04:45:21.394Z,0.50
2024-04-25T04:46:21.421Z,0.52
2024-04-25T04:47:21.578Z,0.52
2024-04-25T04:48:30.911Z,0.51
2024-04-25T04:49:22.444Z,0.51
2024-04-25T04:50:21.548Z,0.51
2024-04-25T04:51:21.478Z,0.51
2024-04-25T04:52:21.453Z,0.51
2024-04-25T04:53:21.472Z,0.50
2024-04-25T04:54:21.476Z,0.52
2024-04-25T04:55:21.485Z,0.52
2024-04-25T04:56:21.524Z,0.51
2024-04-25T04:57:21.501Z,0.51
2024-04-25T04:58:21.517Z,0.51
2024-04-25T04:59:21.542Z,0.50
2024-04-25T05:00:21.531Z,0.51
2024-04-25T05:01:21.538Z,0.50
2024-04-25T05:02:21.605Z,0.50
2024-04-25T05:03:21.682Z,0.50
2024-04-25T05:04:21.562Z,0.51
2024-04-25T05:05:21.657Z,0.51
2024-04-25T05:06:21.615Z,0.51
2024-04-25T05:07:21.667Z,0.51
2024-04-25T05:08:21.728Z,0.50
2024-04-25T05:09:21.788Z,0.52
2024-04-25T05:10:21.817Z,0.52
2024-04-25T05:11:21.965Z,0.52
2024-04-25T05:12:21.955Z,0.50
2024-04-25T05:13:21.960Z,0.50
2024-04-25T05:14:22.076Z,0.52
2024-04-25T05:15:22.068Z,0.52
2024-04-25T05:16:22.257Z,0.52
2024-04-25T05:17:22.187Z,0.51
2024-04-25T05:18:22.254Z,0.51
2024-04-25T05:19:22.262Z,0.51
2024-04-25T05:20:22.373Z,0.52
2024-04-25T05:21:22.367Z,0.51
2024-04-25T05:22:22.402Z,0.51
2024-04-25T05:23:22.502Z,0.51
2024-04-25T05:24:22.493Z,0.52
2024-04-25T05:25:22.547Z,0.52
2024-04-25T05:26:22.612Z,0.51
2024-04-25T05:27:22.693Z,0.52
2024-04-25T05:28:23.386Z,0.52
2024-04-25T05:29:22.772Z,0.51
2024-04-25T05:30:22.788Z,0.53
2024-04-25T05:31:22.787Z,0.52
2024-04-25T05:32:22.834Z,0.52
2024-04-25T05:33:22.938Z,0.51
2024-04-25T05:34:22.845Z,0.53
2024-04-25T05:35:22.870Z,0.51
2024-04-25T05:36:22.861Z,0.51
2024-04-25T05:37:22.864Z,0.53
2024-04-25T05:38:22.911Z,0.52
2024-04-25T05:39:22.901Z,0.50
2024-04-25T05:40:22.958Z,0.52
2024-04-25T05:41:22.943Z,0.51
2024-04-25T05:42:22.931Z,0.51
2024-04-25T05:43:22.938Z,0.52
2024-04-25T05:44:22.983Z,0.52
2024-04-25T05:45:22.986Z,0.51
2024-04-25T05:46:23.011Z,0.52
2024-04-25T05:47:23.055Z,0.53
2024-04-25T05:48:23.190Z,0.52
2024-04-25T05:49:23.071Z,0.52
2024-04-25T05:50:23.034Z,0.52
2024-04-25T05:51:23.018Z,0.52
2024-04-25T05:52:23.015Z,0.51
2024-04-25T05:53:23.058Z,0.52
2024-04-25T05:54:23.038Z,0.51
2024-04-25T05:55:23.089Z,0.52
2024-04-25T05:56:23.110Z,0.52
2024-04-25T05:57:23.132Z,0.52
2024-04-25T05:58:23.119Z,0.52
2024-04-25T05:59:23.195Z,0.52
2024-04-25T06:00:23.152Z,0.53
2024-04-25T06:01:23.146Z,0.53
2024-04-25T06:02:23.159Z,0.53
2024-04-25T06:03:23.220Z,0.53
2024-04-25T06:04:23.204Z,0.53
2024-04-25T06:05:23.216Z,0.53
2024-04-25T06:06:23.227Z,0.53
2024-04-25T06:07:23.258Z,0.53
2024-04-25T06:08:23.322Z,0.52
2024-04-25T06:09:23.304Z,0.52
2024-04-25T06:10:23.483Z,0.52
2024-04-25T06:11:23.470Z,0.52
2024-04-25T06:12:23.522Z,0.52
2024-04-25T06:13:23.343Z,0.52
2024-04-25T06:14:23.438Z,0.52
2024-04-25T06:15:23.410Z,0.52
2024-04-25T06:16:23.437Z,0.53
2024-04-25T06:17:23.490Z,0.52
2024-04-25T06:18:23.559Z,0.53
2024-04-25T06:19:23.471Z,0.52
2024-04-25T06:20:23.504Z,0.53
2024-04-25T06:21:23.562Z,0.52
2024-04-25T06:22:23.478Z,0.51
2024-04-25T06:23:23.534Z,0.52
2024-04-25T06:24:23.496Z,0.52
2024-04-25T06:25:23.501Z,0.52
2024-04-25T06:26:23.598Z,0.52
2024-04-25T06:27:23.542Z,0.53
2024-04-25T06:28:23.543Z,0.52
2024-04-25T06:29:23.586Z,0.51
2024-04-25T06:30:23.590Z,0.52
2024-04-25T06:31:23.591Z,0.53
2024-04-25T06:32:23.686Z,0.53
2024-04-25T06:33:23.661Z,0.53
2024-04-25T06:34:23.612Z,0.53
2024-04-25T06:35:23.664Z,0.53
2024-04-25T06:36:23.648Z,0.52
2024-04-25T06:37:23.669Z,0.53
2024-04-25T06:38:23.732Z,0.53
2024-04-25T06:39:23.690Z,0.54
2024-04-25T06:40:23.698Z,0.55
2024-04-25T06:41:23.707Z,0.54
2024-04-25T06:42:23.736Z,0.53
2024-04-25T06:43:23.735Z,0.52
2024-04-25T06:44:29.607Z,0.53
2024-04-25T06:45:24.796Z,0.53
2024-04-25T06:46:23.773Z,0.53
2024-04-25T06:47:23.882Z,0.54
2024-04-25T06:48:24.488Z,0.54
2024-04-25T06:49:23.869Z,0.54
2024-04-25T06:50:23.866Z,0.53
2024-04-25T06:51:23.813Z,0.54
2024-04-25T06:52:23.806Z,0.52
2024-04-25T06:53:23.843Z,0.53
2024-04-25T06:54:26.346Z,0.53
2024-04-25T06:55:23.855Z,0.53
2024-04-25T06:56:23.866Z,0.54
2024-04-25T06:57:23.940Z,0.53
2024-04-25T06:58:23.858Z,0.54
2024-04-25T06:59:23.899Z,0.55
2024-04-25T07:00:23.900Z,0.54
2024-04-25T07:01:23.907Z,0.54
2024-04-25T07:02:24.012Z,0.55
2024-04-25T07:03:23.994Z,0.53
2024-04-25T07:04:23.948Z,0.54
2024-04-25T07:05:24.002Z,0.53
2024-04-25T07:06:24.002Z,0.53
2024-04-25T07:07:24.014Z,0.53
2024-04-25T07:08:24.079Z,0.54
2024-04-25T07:09:24.017Z,0.53
2024-04-25T07:10:24.058Z,0.53
2024-04-25T07:11:24.111Z,0.53
2024-04-25T07:12:24.042Z,0.54
2024-04-25T07:13:24.040Z,0.53
2024-04-25T07:14:24.124Z,0.54
2024-04-25T07:15:24.069Z,0.54
2024-04-25T07:16:24.085Z,0.53
2024-04-25T07:17:24.252Z,0.53
2024-04-25T07:18:24.172Z,0.53
2024-04-25T07:19:24.128Z,0.54
2024-04-25T07:20:24.198Z,0.54
2024-04-25T07:21:24.163Z,0.54
2024-04-25T07:22:24.166Z,0.54
2024-04-25T07:23:24.214Z,0.55
2024-04-25T07:24:24.187Z,0.54
2024-04-25T07:25:24.217Z,0.55
2024-04-25T07:26:24.233Z,0.54
2024-04-25T07:27:24.267Z,0.54
2024-04-25T07:28:24.299Z,0.54
2024-04-25T07:29:24.347Z,0.54
2024-04-25T07:30:24.316Z,0.54
2024-04-25T07:31:24.337Z,0.55
2024-04-25T07:32:24.455Z,0.54
2024-04-25T07:33:24.543Z,0.54
2024-04-25T07:34:24.391Z,0.55
2024-04-25T07:35:24.435Z,0.54
2024-04-25T07:36:24.406Z,0.54
2024-04-25T07:37:24.419Z,0.55
2024-04-25T07:38:24.481Z,0.56
2024-04-25T07:39:24.500Z,0.54
2024-04-25T07:40:24.475Z,0.54
2024-04-25T07:41:24.518Z,0.54
2024-04-25T07:42:24.515Z,0.55
2024-04-25T07:43:24.515Z,0.54
2024-04-25T07:44:24.617Z,0.56
2024-04-25T07:45:24.541Z,0.53
2024-04-25T07:46:24.561Z,0.53
2024-04-25T07:47:24.624Z,0.54
2024-04-25T07:48:24.684Z,0.54
2024-04-25T07:49:24.793Z,0.54
2024-04-25T07:50:24.681Z,0.55
2024-04-25T07:51:24.620Z,0.54
2024-04-25T07:52:27.607Z,0.54
2024-04-25T07:53:24.666Z,0.54
2024-04-25T07:54:24.663Z,0.54
2024-04-25T07:55:24.671Z,0.55
2024-04-25T07:56:24.732Z,0.55
2024-04-25T07:57:24.710Z,0.55
2024-04-25T07:58:24.714Z,0.54
2024-04-25T07:59:24.736Z,0.55
2024-04-25T08:00:24.728Z,0.54
2024-04-25T08:01:24.750Z,0.54
2024-04-25T08:02:24.859Z,0.54
2024-04-25T08:03:24.916Z,0.54
2024-04-25T08:04:24.882Z,0.55
2024-04-25T08:05:24.934Z,0.56
2024-04-25T08:06:24.837Z,0.53
2024-04-25T08:07:24.858Z,0.56
2024-04-25T08:08:26.098Z,0.55
2024-04-25T08:09:24.906Z,0.55
2024-04-25T08:10:24.987Z,0.55
2024-04-25T08:11:24.959Z,0.55
2024-04-25T08:12:24.957Z,0.55
2024-04-25T08:13:24.951Z,0.55
2024-04-25T08:14:24.979Z,0.55
2024-04-25T08:15:24.986Z,0.55
2024-04-25T08:16:25.033Z,0.54
2024-04-25T08:17:25.028Z,0.54
2024-04-25T08:18:25.037Z,0.52
2024-04-25T08:19:25.038Z,0.54
2024-04-25T08:20:27.137Z,0.56
2024-04-25T08:21:25.107Z,0.56
2024-04-25T08:22:25.113Z,0.55
2024-04-25T08:23:25.194Z,0.55
2024-04-25T08:24:25.247Z,0.56
2024-04-25T08:25:25.218Z,0.55
2024-04-25T08:26:25.312Z,0.57
2024-04-25T08:27:25.253Z,0.55
2024-04-25T08:28:25.286Z,0.55
2024-04-25T08:29:25.512Z,0.55
2024-04-25T08:30:25.354Z,0.55
2024-04-25T08:31:25.420Z,0.55
2024-04-25T08:32:26.508Z,0.55
2024-04-25T08:33:25.476Z,0.55
2024-04-25T08:34:25.511Z,0.54
2024-04-25T08:35:25.535Z,0.55
2024-04-25T08:36:25.530Z,0.54
2024-04-25T08:37:25.590Z,0.54
2024-04-25T08:38:25.611Z,0.54
2024-04-25T08:39:25.612Z,0.54
2024-04-25T08:40:25.615Z,0.54
2024-04-25T08:41:25.693Z,0.54
2024-04-25T08:42:25.690Z,0.53
2024-04-25T08:43:25.736Z,0.53
2024-04-25T08:44:25.777Z,0.53
2024-04-25T08:45:25.826Z,0.53
2024-04-25T08:46:25.797Z,0.53
2024-04-25T08:47:25.874Z,0.53
2024-04-25T08:48:25.964Z,0.54
2024-04-25T08:49:25.872Z,0.53
2024-04-25T08:50:25.916Z,0.55
2024-04-25T08:51:25.944Z,0.53
2024-04-25T08:52:25.933Z,0.54
2024-04-25T08:53:26.002Z,0.53
2024-04-25T08:54:25.999Z,0.51
2024-04-25T08:55:26.118Z,0.53
2024-04-25T08:56:26.083Z,0.52
2024-04-25T08:57:26.099Z,0.53
2024-04-25T08:58:26.101Z,0.52
2024-04-25T08:59:26.151Z,0.54
2024-04-25T09:00:26.153Z,0.53
2024-04-25T09:01:26.234Z,0.51
2024-04-25T09:02:26.313Z,0.51
2024-04-25T09:03:26.370Z,0.52
2024-04-25T09:04:26.255Z,0.52
2024-04-25T09:05:26.368Z,0.53
2024-04-25T09:06:28.379Z,0.52
2024-04-25T09:07:26.302Z,0.52
2024-04-25T09:08:26.326Z,0.52
2024-04-25T09:09:26.365Z,0.52
2024-04-25T09:10:26.388Z,0.52
2024-04-25T09:11:26.578Z,0.53
2024-04-25T09:12:26.467Z,0.53
2024-04-25T09:13:26.394Z,0.52
2024-04-25T09:14:26.465Z,0.52
2024-04-25T09:15:26.466Z,0.52
2024-04-25T09:16:26.543Z,0.53
2024-04-25T09:17:26.525Z,0.52
2024-04-25T09:18:26.565Z,0.52
2024-04-25T09:19:26.521Z,0.51
2024-04-25T09:20:26.569Z,0.52
2024-04-25T09:21:26.555Z,0.52
2024-04-25T09:22:26.581Z,0.53
2024-04-25T09:23:26.632Z,0.51
2024-04-25T09:24:26.595Z,0.52
2024-04-25T09:25:26.635Z,0.51
2024-04-25T09:26:26.662Z,0.52
2024-04-25T09:27:26.660Z,0.53
2024-04-25T09:28:26.657Z,0.53
2024-04-25T09:29:26.707Z,0.52
2024-04-25T09:30:26.694Z,0.53
2024-04-25T09:31:26.707Z,0.54
2024-04-25T09:32:26.774Z,0.53
2024-04-25T09:33:26.902Z,0.52
2024-04-25T09:34:26.748Z,0.53
2024-04-25T09:35:26.829Z,0.55
2024-04-25T09:36:26.806Z,0.53
2024-04-25T09:37:26.813Z,0.52
2024-04-25T09:38:26.864Z,0.53
2024-04-25T09:39:26.821Z,0.54
2024-04-25T09:40:26.929Z,0.54
2024-04-25T09:41:26.874Z,0.53
2024-04-25T09:42:26.861Z,0.53
2024-04-25T09:43:26.866Z,0.54
2024-04-25T09:44:26.951Z,0.53
2024-04-25T09:45:26.923Z,0.54
2024-04-25T09:46:26.942Z,0.56
2024-04-25T09:47:27.019Z,0.56
2024-04-25T09:48:26.962Z,0.54
2024-04-25T09:49:26.969Z,0.55
2024-04-25T09:50:27.037Z,0.54
2024-04-25T09:51:27.009Z,0.55
2024-04-25T09:52:27.017Z,0.55
2024-04-25T09:53:27.073Z,0.53
2024-04-25T09:54:27.037Z,0.55
2024-04-25T09:55:27.138Z,0.55
2024-04-25T09:56:27.111Z,0.54
2024-04-25T09:57:27.067Z,0.56
2024-04-25T09:58:27.110Z,0.55
2024-04-25T09:59:27.116Z,0.54
2024-04-25T10:00:27.104Z,0.54
2024-04-25T10:01:27.155Z,0.55
2024-04-25T10:02:27.297Z,0.55
2024-04-25T10:03:27.180Z,0.55
2024-04-25T10:04:27.171Z,0.55
2024-04-25T10:05:27.211Z,0.56
2024-04-25T10:06:27.216Z,0.53
2024-04-25T10:07:27.224Z,0.54
2024-04-25T10:08:27.251Z,0.55
2024-04-25T10:09:27.262Z,0.56
2024-04-25T10:10:27.267Z,0.56
2024-04-25T10:11:27.342Z,0.54
2024-04-25T10:12:27.332Z,0.56
2024-04-25T10:13:27.290Z,0.55
2024-04-25T10:14:27.429Z,0.55
2024-04-25T10:15:27.330Z,0.55
2024-04-25T10:16:27.335Z,0.55
2024-04-25T10:17:27.423Z,0.56
2024-04-25T10:18:27.430Z,0.54
2024-04-25T10:19:27.352Z,0.54
2024-04-25T10:20:27.399Z,0.56
2024-04-25T10:21:27.372Z,0.55
2024-04-25T10:22:27.380Z,0.55
2024-04-25T10:23:27.402Z,0.55
2024-04-25T10:24:27.401Z,0.54
2024-04-25T10:25:27.386Z,0.56
2024-04-25T10:26:27.408Z,0.55
2024-04-25T10:27:27.391Z,0.56
2024-04-25T10:28:27.423Z,0.56
2024-04-25T10:29:27.442Z,0.56
2024-04-25T10:30:27.453Z,0.55
2024-04-25T10:31:27.474Z,0.56
2024-04-25T10:32:27.553Z,0.55
2024-04-25T10:33:27.536Z,0.56
2024-04-25T10:34:27.536Z,0.57
2024-04-25T10:35:27.638Z,0.55
2024-04-25T10:36:27.647Z,0.55
2024-04-25T10:37:27.739Z,0.56
2024-04-25T10:38:27.797Z,0.55
2024-04-25T10:39:27.776Z,0.54
2024-04-25T10:40:27.757Z,0.54
2024-04-25T10:41:27.837Z,0.53
2024-04-25T10:42:27.788Z,0.53
2024-04-25T10:43:27.811Z,0.53
2024-04-25T10:44:27.863Z,0.53
2024-04-25T10:45:27.844Z,0.52
2024-04-25T10:46:27.956Z,0.52
2024-04-25T10:47:28.100Z,0.51
2024-04-25T10:48:28.205Z,0.51
2024-04-25T10:49:28.298Z,0.51
2024-04-25T10:50:28.387Z,0.52
2024-04-25T10:51:28.320Z,0.50
2024-04-25T10:52:28.397Z,0.52
2024-04-25T10:53:28.476Z,0.52
2024-04-25T10:54:28.542Z,0.50
2024-04-25T10:55:28.612Z,0.51
2024-04-25T10:56:28.704Z,0.51
2024-04-25T10:57:28.772Z,0.51
2024-04-25T10:58:28.840Z,0.51
2024-04-25T10:59:28.923Z,0.50
2024-04-25T11:00:29.004Z,0.51
2024-04-25T11:01:29.245Z,0.50
2024-04-25T11:02:29.166Z,0.51
2024-04-25T11:03:29.229Z,0.51
2024-04-25T11:04:29.293Z,0.50
2024-04-25T11:05:29.408Z,0.51
2024-04-25T11:06:29.564Z,0.50
2024-04-25T11:07:29.558Z,0.51
2024-04-25T11:08:29.636Z,0.52
2024-04-25T11:09:29.668Z,0.51
2024-04-25T11:10:29.739Z,0.50
2024-04-25T11:11:29.901Z,0.51
2024-04-25T11:12:29.927Z,0.51
2024-04-25T11:13:29.973Z,0.52
2024-04-25T11:14:30.122Z,0.50
2024-04-25T11:15:30.099Z,0.50
2024-04-25T11:16:30.179Z,0.51
2024-04-25T11:17:37.064Z,0.51
2024-04-25T11:18:33.268Z,0.51
2024-04-25T11:19:33.222Z,0.51
2024-04-25T11:20:31.408Z,0.50
2024-04-25T11:21:30.422Z,0.50
2024-04-25T11:22:41.199Z,0.50
2024-04-25T11:23:31.362Z,0.50
2024-04-25T11:24:30.556Z,0.48
2024-04-25T11:25:30.364Z,0.48
2024-04-25T11:26:30.377Z,0.48
2024-04-25T11:27:30.335Z,0.47
2024-04-25T11:28:30.389Z,0.50
2024-04-25T11:29:30.420Z,0.51
2024-04-25T11:30:30.387Z,0.50
2024-04-25T11:31:30.405Z,0.50
2024-04-25T11:32:30.535Z,0.51
2024-04-25T11:33:30.627Z,0.52
2024-04-25T11:34:30.524Z,0.51
2024-04-25T11:35:30.585Z,0.50
2024-04-25T11:36:31.935Z,0.50
2024-04-25T11:37:30.696Z,0.50
2024-04-25T11:38:30.771Z,0.50
2024-04-25T11:39:30.831Z,0.50
2024-04-25T11:40:30.897Z,0.51
2024-04-25T11:41:31.064Z,0.50
2024-04-25T11:42:31.044Z,0.51
2024-04-25T11:43:31.102Z,0.51
2024-04-25T11:44:31.176Z,0.51
2024-04-25T11:45:33.562Z,0.52
2024-04-25T11:46:31.255Z,0.52
2024-04-25T11:47:31.293Z,0.52
2024-04-25T11:48:31.338Z,0.52
2024-04-25T11:49:31.276Z,0.51
2024-04-25T11:50:31.366Z,0.52
2024-04-25T11:51:31.293Z,0.53
2024-04-25T11:52:31.292Z,0.53
2024-04-25T11:53:31.323Z,0.54
2024-04-25T11:54:31.324Z,0.53
2024-04-25T11:55:31.362Z,0.53
2024-04-25T11:56:31.392Z,0.54
2024-04-25T11:57:31.370Z,0.55
2024-04-25T11:58:31.351Z,0.54
2024-04-25T11:59:31.400Z,0.55
2024-04-25T12:00:31.381Z,0.54
2024-04-25T12:01:31.372Z,0.56
2024-04-25T12:02:31.407Z,0.55
2024-04-25T12:03:31.400Z,0.56
2024-04-25T12:04:31.469Z,0.56
2024-04-25T12:05:31.426Z,0.56
2024-04-25T12:06:31.416Z,0.55
2024-04-25T12:07:31.419Z,0.56
2024-04-25T12:08:31.482Z,0.57
2024-04-25T12:09:31.485Z,0.57
2024-04-25T12:10:31.668Z,0.57
2024-04-25T12:11:31.652Z,0.58
2024-04-25T12:12:31.810Z,0.57
2024-04-25T12:13:31.735Z,0.58
2024-04-25T12:14:31.899Z,0.58
2024-04-25T12:15:31.848Z,0.58
2024-04-25T12:16:32.002Z,0.59
2024-04-25T12:17:33.559Z,0.57
2024-04-25T12:18:32.277Z,0.58
2024-04-25T12:19:32.123Z,0.58
2024-04-25T12:20:32.181Z,0.58
2024-04-25T12:21:32.231Z,0.58
2024-04-25T12:22:32.305Z,0.59
2024-04-25T12:23:32.366Z,0.58
2024-04-25T12:24:32.435Z,0.59
2024-04-25T12:25:32.466Z,0.59
2024-04-25T12:26:32.517Z,0.59
2024-04-25T12:27:32.501Z,0.59
2024-04-25T12:28:34.325Z,0.59
2024-04-25T12:29:32.527Z,0.59
2024-04-25T12:30:32.539Z,0.59
2024-04-25T12:31:32.603Z,0.59
2024-04-25T12:32:32.768Z,0.58
2024-04-25T12:33:33.028Z,0.59
2024-04-25T12:34:32.825Z,0.58
2024-04-25T12:35:32.877Z,0.58
2024-04-25T12:36:32.857Z,0.58
2024-04-25T12:37:32.851Z,0.58
2024-04-25T12:38:32.898Z,0.58
2024-04-25T12:39:32.879Z,0.58
2024-04-25T12:40:32.949Z,0.57
2024-04-25T12:41:32.896Z,0.59
2024-04-25T12:42:32.883Z,0.58
2024-04-25T12:43:32.882Z,0.57
2024-04-25T12:44:32.937Z,0.57
2024-04-25T12:45:34.275Z,0.57
2024-04-25T12:46:33.038Z,0.57
2024-04-25T12:47:33.226Z,0.58
2024-04-25T12:48:33.345Z,0.56
2024-04-25T12:49:33.239Z,0.58
2024-04-25T12:50:33.389Z,0.57
2024-04-25T12:51:33.378Z,0.58
2024-04-25T12:52:33.438Z,0.56
2024-04-25T12:53:33.539Z,0.58
2024-04-25T12:54:33.555Z,0.57
2024-04-25T12:55:33.627Z,0.57
2024-04-25T12:56:33.696Z,0.56
2024-04-25T12:57:33.739Z,0.57
2024-04-25T12:58:33.798Z,0.57
2024-04-25T12:59:34.016Z,0.57
2024-04-25T13:00:33.937Z,0.57
2024-04-25T13:01:33.962Z,0.57
2024-04-25T13:02:34.087Z,0.57
2024-04-25T13:03:34.115Z,0.57
2024-04-25T13:04:34.165Z,0.57
2024-04-25T13:05:34.229Z,0.57
2024-04-25T13:06:34.257Z,0.57
2024-04-25T13:07:34.295Z,0.57
2024-04-25T13:08:34.418Z,0.58
2024-04-25T13:09:34.398Z,0.57
2024-04-25T13:10:34.440Z,0.59
2024-04-25T13:11:34.577Z,0.56
2024-04-25T13:12:34.547Z,0.57
2024-04-25T13:13:34.573Z,0.57
2024-04-25T13:14:34.669Z,0.57
2024-04-25T13:15:34.665Z,0.59
2024-04-25T13:16:34.746Z,0.57
2024-04-25T13:17:37.321Z,0.57
2024-04-25T13:18:34.894Z,0.57
2024-04-25T13:19:34.825Z,0.58